sensor_id;sensor_type;location;lat;lon;timestamp;pressure;altitude;pressure_sealevel;temperature;humidity
64933;BME280;51446;53.850;10.662;2023-10-31T00:01:27;99440.78;;;10.64;100.00
64933;BME280;51446;53.850;10.662;2023-10-31T00:03:52;99438.16;;;10.64;100.00
64933;BME280;51446;53.850;10.662;2023-10-31T00:06:18;99431.19;;;10.65;100.00
64933;BME280;51446;53.850;10.662;2023-10-31T00:08:43;99425.97;;;10.62;100.00
64933;BME280;51446;53.850;10.662;2023-10-31T00:11:08;99421.59;;;10.61;100.00
64933;BME280;51446;53.850;10.662;2023-10-31T00:13:33;99409.31;;;10.64;100.00
64933;BME280;51446;53.850;10.662;2023-10-31T00:15:59;99410.22;;;10.63;100.00
64933;BME280;51446;53.850;10.662;2023-10-31T00:18:24;99412.81;;;10.65;100.00
64933;BME280;51446;53.850;10.662;2023-10-31T00:20:49;99404.97;;;10.63;100.00
64933;BME280;51446;53.850;10.662;2023-10-31T00:23:15;99395.34;;;10.62;100.00
64933;BME280;51446;53.850;10.662;2023-10-31T00:25:40;99398.03;;;10.57;100.00
64933;BME280;51446;53.850;10.662;2023-10-31T00:28:05;99394.50;;;10.62;100.00
64933;BME280;51446;53.850;10.662;2023-10-31T00:30:31;99396.09;;;10.80;100.00
64933;BME280;51446;53.850;10.662;2023-10-31T00:32:56;99387.50;;;10.61;100.00
64933;BME280;51446;53.850;10.662;2023-10-31T00:35:21;99388.34;;;10.63;100.00
64933;BME280;51446;53.850;10.662;2023-10-31T00:37:46;99394.50;;;10.57;100.00
64933;BME280;51446;53.850;10.662;2023-10-31T00:40:12;99384.03;;;10.55;100.00
64933;BME280;51446;53.850;10.662;2023-10-31T00:42:38;99386.63;;;10.60;100.00
64933;BME280;51446;53.850;10.662;2023-10-31T00:45:06;99378.78;;;10.62;100.00
64933;BME280;51446;53.850;10.662;2023-10-31T00:47:31;99378.75;;;10.63;100.00
64933;BME280;51446;53.850;10.662;2023-10-31T00:49:57;99380.50;;;10.59;100.00
64933;BME280;51446;53.850;10.662;2023-10-31T00:52:22;99371.75;;;10.65;100.00
64933;BME280;51446;53.850;10.662;2023-10-31T00:54:47;99368.28;;;10.58;100.00
64933;BME280;51446;53.850;10.662;2023-10-31T00:57:12;99356.09;;;10.56;100.00
64933;BME280;51446;53.850;10.662;2023-10-31T00:59:38;99356.88;;;10.69;100.00
64933;BME280;51446;53.850;10.662;2023-10-31T01:02:04;99356.84;;;10.67;100.00
64933;BME280;51446;53.850;10.662;2023-10-31T01:04:29;99342.94;;;10.62;100.00
64933;BME280;51446;53.850;10.662;2023-10-31T01:06:56;99350.84;;;10.56;100.00
64933;BME280;51446;53.850;10.662;2023-10-31T01:09:21;99343.75;;;10.69;100.00
64933;BME280;51446;53.850;10.662;2023-10-31T01:11:47;99340.31;;;10.61;100.00
64933;BME280;51446;53.850;10.662;2023-10-31T01:14:12;99337.66;;;10.64;100.00
64933;BME280;51446;53.850;10.662;2023-10-31T01:16:39;99335.06;;;10.64;100.00
64933;BME280;51446;53.850;10.662;2023-10-31T01:19:04;99336.84;;;10.57;100.00
64933;BME280;51446;53.850;10.662;2023-10-31T01:21:30;99328.88;;;10.71;100.00
64933;BME280;51446;53.850;10.662;2023-10-31T01:23:55;99328.03;;;10.64;100.00
64933;BME280;51446;53.850;10.662;2023-10-31T01:26:20;99328.81;;;10.77;100.00
64933;BME280;51446;53.850;10.662;2023-10-31T01:28:45;99328.97;;;10.62;100.00
64933;BME280;51446;53.850;10.662;2023-10-31T01:31:11;99318.44;;;10.66;100.00
64933;BME280;51446;53.850;10.662;2023-10-31T01:33:36;99324.56;;;10.62;100.00
64933;BME280;51446;53.850;10.662;2023-10-31T01:36:01;99314.88;;;10.73;100.00
64933;BME280;51446;53.850;10.662;2023-10-31T01:38:26;99319.28;;;10.67;100.00
64933;BME280;51446;53.850;10.662;2023-10-31T01:40:52;99312.31;;;10.69;100.00
64933;BME280;51446;53.850;10.662;2023-10-31T01:43:36;99305.19;;;10.83;100.00
64933;BME280;51446;53.850;10.662;2023-10-31T01:46:03;99311.38;;;10.71;100.00
64933;BME280;51446;53.850;10.662;2023-10-31T01:48:29;99307.91;;;10.69;100.00
64933;BME280;51446;53.850;10.662;2023-10-31T01:50:57;99299.22;;;10.63;100.00
64933;BME280;51446;53.850;10.662;2023-10-31T01:53:24;99295.63;;;10.76;100.00
64933;BME280;51446;53.850;10.662;2023-10-31T01:55:51;99300.91;;;10.71;100.00
64933;BME280;51446;53.850;10.662;2023-10-31T01:58:19;99306.13;;;10.71;100.00
64933;BME280;51446;53.850;10.662;2023-10-31T02:00:46;99292.22;;;10.66;100.00
64933;BME280;51446;53.850;10.662;2023-10-31T02:03:11;99295.72;;;10.64;100.00
64933;BME280;51446;53.850;10.662;2023-10-31T02:05:37;99286.06;;;10.70;100.00
64933;BME280;51446;53.850;10.662;2023-10-31T02:08:03;99277.25;;;10.74;100.00
64933;BME280;51446;53.850;10.662;2023-10-31T02:10:28;99279.09;;;10.66;100.00
64933;BME280;51446;53.850;10.662;2023-10-31T02:12:53;99271.22;;;10.69;100.00
64933;BME280;51446;53.850;10.662;2023-10-31T02:15:18;99271.19;;;10.71;100.00
64933;BME280;51446;53.850;10.662;2023-10-31T02:17:44;99265.09;;;10.66;100.00
64933;BME280;51446;53.850;10.662;2023-10-31T02:20:10;99267.72;;;10.67;100.00
64933;BME280;51446;53.850;10.662;2023-10-31T02:22:35;99265.19;;;10.59;100.00
64933;BME280;51446;53.850;10.662;2023-10-31T02:25:00;99260.78;;;10.65;100.00
64933;BME280;51446;53.850;10.662;2023-10-31T02:27:25;99259.13;;;10.54;100.00
64933;BME280;51446;53.850;10.662;2023-10-31T02:29:51;99257.34;;;10.56;100.00
64933;BME280;51446;53.850;10.662;2023-10-31T02:32:16;99249.38;;;10.67;100.00
64933;BME280;51446;53.850;10.662;2023-10-31T02:34:41;99252.09;;;10.56;100.00
64933;BME280;51446;53.850;10.662;2023-10-31T02:37:06;99252.13;;;10.53;100.00
64933;BME280;51446;53.850;10.662;2023-10-31T02:39:32;99249.47;;;10.56;100.00
64933;BME280;51446;53.850;10.662;2023-10-31T02:41:58;99244.25;;;10.55;100.00
64933;BME280;51446;53.850;10.662;2023-10-31T02:44:23;99241.63;;;10.55;100.00
64933;BME280;51446;53.850;10.662;2023-10-31T02:46:48;99233.72;;;10.58;100.00
64933;BME280;51446;53.850;10.662;2023-10-31T02:49:14;99223.16;;;10.70;100.00
64933;BME280;51446;53.850;10.662;2023-10-31T02:51:39;99231.06;;;10.61;100.00
64933;BME280;51446;53.850;10.662;2023-10-31T02:54:04;99224.94;;;10.64;100.00
64933;BME280;51446;53.850;10.662;2023-10-31T02:56:30;99219.66;;;10.68;100.00
64933;BME280;51446;53.850;10.662;2023-10-31T02:58:55;99216.22;;;10.63;100.00
64933;BME280;51446;53.850;10.662;2023-10-31T03:01:20;99199.56;;;10.70;100.00
64933;BME280;51446;53.850;10.662;2023-10-31T03:03:46;99206.50;;;10.76;100.00
64933;BME280;51446;53.850;10.662;2023-10-31T03:06:11;99206.56;;;10.67;100.00
64933;BME280;51446;53.850;10.662;2023-10-31T03:08:36;99201.28;;;10.70;100.00
64933;BME280;51446;53.850;10.662;2023-10-31T03:11:01;99208.34;;;10.63;100.00
64933;BME280;51446;53.850;10.662;2023-10-31T03:13:27;99209.19;;;10.65;100.00
64933;BME280;51446;53.850;10.662;2023-10-31T03:15:52;99199.56;;;10.70;100.00
64933;BME280;51446;53.850;10.662;2023-10-31T03:18:17;99199.63;;;10.61;100.00
64933;BME280;51446;53.850;10.662;2023-10-31T03:20:44;99198.69;;;10.68;100.00
64933;BME280;51446;53.850;10.662;2023-10-31T03:23:10;99196.84;;;10.76;100.00
64933;BME280;51446;53.850;10.662;2023-10-31T03:25:35;99195.03;;;10.82;100.00
64933;BME280;51446;53.850;10.662;2023-10-31T03:28:01;99193.38;;;10.76;100.00
64933;BME280;51446;53.850;10.662;2023-10-31T03:30:27;99182.88;;;10.74;100.00
64933;BME280;51446;53.850;10.662;2023-10-31T03:32:52;99189.81;;;10.79;100.00
64933;BME280;51446;53.850;10.662;2023-10-31T03:35:17;99189.00;;;10.76;100.00
64933;BME280;51446;53.850;10.662;2023-10-31T03:37:42;99188.94;;;10.80;100.00
64933;BME280;51446;53.850;10.662;2023-10-31T03:40:08;99176.69;;;10.80;100.00
64933;BME280;51446;53.850;10.662;2023-10-31T03:42:34;99181.97;;;10.79;100.00
64933;BME280;51446;53.850;10.662;2023-10-31T03:44:59;99174.06;;;10.83;100.00
64933;BME280;51446;53.850;10.662;2023-10-31T03:47:24;99169.72;;;10.81;100.00
64933;BME280;51446;53.850;10.662;2023-10-31T03:49:50;99170.53;;;10.84;100.00
64933;BME280;51446;53.850;10.662;2023-10-31T03:52:15;99173.19;;;10.81;100.00
64933;BME280;51446;53.850;10.662;2023-10-31T03:54:40;99161.88;;;10.79;100.00
64933;BME280;51446;53.850;10.662;2023-10-31T03:57:05;99167.09;;;10.82;100.00
64933;BME280;51446;53.850;10.662;2023-10-31T03:59:30;99163.47;;;10.91;100.00
64933;BME280;51446;53.850;10.662;2023-10-31T04:01:56;99155.88;;;10.68;100.00
64933;BME280;51446;53.850;10.662;2023-10-31T04:04:21;99152.13;;;10.90;100.00
64933;BME280;51446;53.850;10.662;2023-10-31T04:06:46;99155.69;;;10.82;100.00
64933;BME280;51446;53.850;10.662;2023-10-31T04:09:12;99158.25;;;10.89;100.00
64933;BME280;51446;53.850;10.662;2023-10-31T04:11:37;99158.34;;;10.80;100.00
64933;BME280;51446;53.850;10.662;2023-10-31T04:14:03;99157.56;;;10.73;100.00
64933;BME280;51446;53.850;10.662;2023-10-31T04:16:29;99148.75;;;10.81;100.00
64933;BME280;51446;53.850;10.662;2023-10-31T04:18:54;99154.81;;;10.83;100.00
64933;BME280;51446;53.850;10.662;2023-10-31T04:21:19;99146.91;;;10.87;100.00
64933;BME280;51446;53.850;10.662;2023-10-31T04:23:45;99141.72;;;10.83;100.00
64933;BME280;51446;53.850;10.662;2023-10-31T04:26:10;99139.06;;;10.84;100.00
64933;BME280;51446;53.850;10.662;2023-10-31T04:28:35;99139.00;;;10.89;100.00
64933;BME280;51446;53.850;10.662;2023-10-31T04:31:00;99139.97;;;10.85;100.00
64933;BME280;51446;53.850;10.662;2023-10-31T04:33:26;99140.72;;;10.91;100.00
64933;BME280;51446;53.850;10.662;2023-10-31T04:35:51;99140.78;;;10.88;100.00
64933;BME280;51446;53.850;10.662;2023-10-31T04:38:16;99132.94;;;10.85;100.00
64933;BME280;51446;53.850;10.662;2023-10-31T04:40:41;99136.38;;;10.92;100.00
64933;BME280;51446;53.850;10.662;2023-10-31T04:43:07;99130.19;;;10.94;100.00
64933;BME280;51446;53.850;10.662;2023-10-31T04:45:33;99131.97;;;10.94;100.00
64933;BME280;51446;53.850;10.662;2023-10-31T04:47:58;99125.66;;;11.07;100.00
64933;BME280;51446;53.850;10.662;2023-10-31T04:50:23;99122.19;;;11.07;100.00
64933;BME280;51446;53.850;10.662;2023-10-31T04:52:48;99114.31;;;11.08;100.00
64933;BME280;51446;53.850;10.662;2023-10-31T04:55:14;99115.06;;;11.18;100.00
64933;BME280;51446;53.850;10.662;2023-10-31T04:57:39;99114.97;;;11.23;100.00
64933;BME280;51446;53.850;10.662;2023-10-31T05:00:05;99110.50;;;11.33;100.00
64933;BME280;51446;53.850;10.662;2023-10-31T05:02:31;99108.81;;;11.27;100.00
64933;BME280;51446;53.850;10.662;2023-10-31T05:04:57;99100.09;;;11.23;100.00
64933;BME280;51446;53.850;10.662;2023-10-31T05:07:23;99099.25;;;11.21;100.00
64933;BME280;51446;53.850;10.662;2023-10-31T05:09:48;99098.38;;;11.22;100.00
64933;BME280;51446;53.850;10.662;2023-10-31T05:12:14;99039.34;;;10.89;100.00
64933;BME280;51446;53.850;10.662;2023-10-31T05:14:40;99091.34;;;11.24;100.00
64933;BME280;51446;53.850;10.662;2023-10-31T05:17:05;99096.56;;;11.26;100.00
64933;BME280;51446;53.850;10.662;2023-10-31T05:19:30;99083.38;;;11.31;100.00
64933;BME280;51446;53.850;10.662;2023-10-31T05:21:56;99079.03;;;11.30;100.00
64933;BME280;51446;53.850;10.662;2023-10-31T05:24:21;99082.53;;;11.30;100.00
64933;BME280;51446;53.850;10.662;2023-10-31T05:26:46;99072.06;;;11.27;100.00
64933;BME280;51446;53.850;10.662;2023-10-31T05:29:11;99073.78;;;11.31;100.00
64933;BME280;51446;53.850;10.662;2023-10-31T05:31:37;99079.81;;;11.35;100.00
64933;BME280;51446;53.850;10.662;2023-10-31T05:34:02;99083.34;;;11.32;100.00
64933;BME280;51446;53.850;10.662;2023-10-31T05:36:30;99077.16;;;11.38;100.00
64933;BME280;51446;53.850;10.662;2023-10-31T05:38:56;99075.50;;;11.34;100.00
64933;BME280;51446;53.850;10.662;2023-10-31T05:41:21;99068.47;;;11.34;100.00
64933;BME280;51446;53.850;10.662;2023-10-31T05:43:47;99060.66;;;11.31;100.00
64933;BME280;51446;53.850;10.662;2023-10-31T05:46:12;99064.91;;;11.38;100.00
64933;BME280;51446;53.850;10.662;2023-10-31T05:48:40;99064.97;;;11.35;100.00
64933;BME280;51446;53.850;10.662;2023-10-31T05:51:13;99068.41;;;11.39;100.00
64933;BME280;51446;53.850;10.662;2023-10-31T05:53:39;99067.50;;;11.41;100.00
64933;BME280;51446;53.850;10.662;2023-10-31T05:56:05;99068.41;;;11.39;100.00
64933;BME280;51446;53.850;10.662;2023-10-31T05:58:32;99074.56;;;11.36;100.00
64933;BME280;51446;53.850;10.662;2023-10-31T06:00:57;99063.22;;;11.34;100.00
64933;BME280;51446;53.850;10.662;2023-10-31T06:03:22;99083.16;;;11.46;100.00
64933;BME280;51446;53.850;10.662;2023-10-31T06:05:48;99080.69;;;11.37;100.00
64933;BME280;51446;53.850;10.662;2023-10-31T06:08:13;99078.75;;;11.50;100.00
64933;BME280;51446;53.850;10.662;2023-10-31T06:10:38;99072.78;;;11.38;100.00
64933;BME280;51446;53.850;10.662;2023-10-31T06:13:03;99078.75;;;11.46;100.00
64933;BME280;51446;53.850;10.662;2023-10-31T06:15:29;99083.25;;;11.41;100.00
64933;BME280;51446;53.850;10.662;2023-10-31T06:17:54;99081.53;;;11.37;100.00
64933;BME280;51446;53.850;10.662;2023-10-31T06:20:19;99074.50;;;11.41;100.00
64933;BME280;51446;53.850;10.662;2023-10-31T06:22:44;99076.25;;;11.40;100.00
64933;BME280;51446;53.850;10.662;2023-10-31T06:25:10;99073.53;;;11.45;100.00
64933;BME280;51446;53.850;10.662;2023-10-31T06:27:35;99072.53;;;11.55;100.00
64933;BME280;51446;53.850;10.662;2023-10-31T06:30:01;99070.13;;;11.40;100.00
64933;BME280;51446;53.850;10.662;2023-10-31T06:32:26;99080.47;;;11.51;100.00
64933;BME280;51446;53.850;10.662;2023-10-31T06:34:51;99083.91;;;11.54;100.00
64933;BME280;51446;53.850;10.662;2023-10-31T06:37:16;99088.22;;;11.60;100.00
64933;BME280;51446;53.850;10.662;2023-10-31T06:39:42;99083.09;;;11.51;100.00
64933;BME280;51446;53.850;10.662;2023-10-31T06:42:07;99076.00;;;11.57;100.00
64933;BME280;51446;53.850;10.662;2023-10-31T06:44:32;99086.47;;;11.59;100.00
64933;BME280;51446;53.850;10.662;2023-10-31T06:46:57;99087.44;;;11.52;100.00
64933;BME280;51446;53.850;10.662;2023-10-31T06:49:22;99086.53;;;11.54;100.00
64933;BME280;51446;53.850;10.662;2023-10-31T06:51:49;99082.00;;;11.66;100.00
64933;BME280;51446;53.850;10.662;2023-10-31T06:54:14;99080.38;;;11.57;100.00
64933;BME280;51446;53.850;10.662;2023-10-31T06:56:40;99084.78;;;11.55;100.00
64933;BME280;51446;53.850;10.662;2023-10-31T06:59:05;99079.41;;;11.64;100.00
64933;BME280;51446;53.850;10.662;2023-10-31T07:01:30;99079.41;;;11.64;100.00
64933;BME280;51446;53.850;10.662;2023-10-31T07:03:56;99079.44;;;11.59;100.00
64933;BME280;51446;53.850;10.662;2023-10-31T07:06:21;99079.44;;;11.62;100.00
64933;BME280;51446;53.850;10.662;2023-10-31T07:08:47;99083.84;;;11.59;100.00
64933;BME280;51446;53.850;10.662;2023-10-31T07:11:12;99081.09;;;11.67;100.00
64933;BME280;51446;53.850;10.662;2023-10-31T07:13:37;99088.16;;;11.63;100.00
64933;BME280;51446;53.850;10.662;2023-10-31T07:16:03;99083.75;;;11.63;100.00
64933;BME280;51446;53.850;10.662;2023-10-31T07:18:28;99087.31;;;11.62;100.00
64933;BME280;51446;53.850;10.662;2023-10-31T07:20:54;99082.66;;;11.78;100.00
64933;BME280;51446;53.850;10.662;2023-10-31T07:23:19;99086.16;;;11.79;100.00
64933;BME280;51446;53.850;10.662;2023-10-31T07:25:44;99080.91;;;11.79;100.00
64933;BME280;51446;53.850;10.662;2023-10-31T07:28:10;99078.22;;;11.82;100.00
64933;BME280;51446;53.850;10.662;2023-10-31T07:30:35;99083.59;;;11.74;100.00
64933;BME280;51446;53.850;10.662;2023-10-31T07:33:01;99085.09;;;11.89;100.00
64933;BME280;51446;53.850;10.662;2023-10-31T07:35:26;99083.44;;;11.84;100.00
64933;BME280;51446;53.850;10.662;2023-10-31T07:37:52;99075.66;;;11.79;100.00
64933;BME280;51446;53.850;10.662;2023-10-31T07:40:17;99081.72;;;11.84;100.00
64933;BME280;51446;53.850;10.662;2023-10-31T07:42:43;99083.38;;;11.87;100.00
64933;BME280;51446;53.850;10.662;2023-10-31T07:45:08;99083.56;;;11.77;100.00
64933;BME280;51446;53.850;10.662;2023-10-31T07:47:35;99080.03;;;11.78;100.00
64933;BME280;51446;53.850;10.662;2023-10-31T07:50:00;99081.72;;;11.81;100.00
64933;BME280;51446;53.850;10.662;2023-10-31T07:52:26;99078.38;;;11.73;100.00
64933;BME280;51446;53.850;10.662;2023-10-31T07:54:51;99082.59;;;11.83;100.00
64933;BME280;51446;53.850;10.662;2023-10-31T07:57:17;99075.59;;;11.82;100.00
64933;BME280;51446;53.850;10.662;2023-10-31T07:59:42;99069.47;;;11.82;100.00
64933;BME280;51446;53.850;10.662;2023-10-31T08:02:07;99070.28;;;11.85;100.00
64933;BME280;51446;53.850;10.662;2023-10-31T08:04:32;99070.22;;;11.90;100.00
64933;BME280;51446;53.850;10.662;2023-10-31T08:06:58;99065.81;;;11.93;100.00
64933;BME280;51446;53.850;10.662;2023-10-31T08:09:23;99064.91;;;11.94;100.00
64933;BME280;51446;53.850;10.662;2023-10-31T08:11:49;99068.44;;;11.93;100.00
64933;BME280;51446;53.850;10.662;2023-10-31T08:14:14;99064.97;;;11.90;100.00
64933;BME280;51446;53.850;10.662;2023-10-31T08:16:41;99072.81;;;11.93;100.00
64933;BME280;51446;53.850;10.662;2023-10-31T08:19:06;99060.47;;;11.98;100.00
64933;BME280;51446;53.850;10.662;2023-10-31T08:21:32;99060.38;;;12.03;100.00
64933;BME280;51446;53.850;10.662;2023-10-31T08:24:01;99067.41;;;12.02;100.00
64933;BME280;51446;53.850;10.662;2023-10-31T08:26:27;99060.31;;;12.07;100.00
64933;BME280;51446;53.850;10.662;2023-10-31T08:28:52;99068.22;;;12.06;100.00
64933;BME280;51446;53.850;10.662;2023-10-31T08:31:18;99062.13;;;12.04;100.00
64933;BME280;51446;53.850;10.662;2023-10-31T08:33:43;99056.75;;;12.10;100.00
64933;BME280;51446;53.850;10.662;2023-10-31T08:36:09;99054.13;;;12.11;100.00
64933;BME280;51446;53.850;10.662;2023-10-31T08:38:34;99060.25;;;12.10;100.00
64933;BME280;51446;53.850;10.662;2023-10-31T08:40:59;99066.47;;;12.06;100.00
64933;BME280;51446;53.850;10.662;2023-10-31T08:43:25;99061.16;;;12.09;100.00
64933;BME280;51446;53.850;10.662;2023-10-31T08:45:50;99060.16;;;12.15;100.00
64933;BME280;51446;53.850;10.662;2023-10-31T08:48:15;99059.34;;;12.13;100.00
64933;BME280;51446;53.850;10.662;2023-10-31T08:50:41;99060.00;;;12.23;100.00
64933;BME280;51446;53.850;10.662;2023-10-31T08:53:06;99054.66;;;12.29;100.00
64933;BME280;51446;53.850;10.662;2023-10-31T08:55:31;99065.81;;;12.42;100.00
64933;BME280;51446;53.850;10.662;2023-10-31T08:57:56;99077.97;;;12.47;100.00
64933;BME280;51446;53.850;10.662;2023-10-31T09:00:22;99074.09;;;12.65;100.00
64933;BME280;51446;53.850;10.662;2023-10-31T09:02:48;99077.53;;;12.71;100.00
64933;BME280;51446;53.850;10.662;2023-10-31T09:05:14;99071.38;;;12.70;100.00
64933;BME280;51446;53.850;10.662;2023-10-31T09:07:39;99073.25;;;12.65;100.00
64933;BME280;51446;53.850;10.662;2023-10-31T09:10:06;99075.88;;;12.65;100.00
64933;BME280;51446;53.850;10.662;2023-10-31T09:12:31;99081.06;;;12.68;100.00
64933;BME280;51446;53.850;10.662;2023-10-31T09:14:57;99078.59;;;12.59;100.00
64933;BME280;51446;53.850;10.662;2023-10-31T09:17:22;99088.53;;;12.44;100.00
64933;BME280;51446;53.850;10.662;2023-10-31T09:19:47;99082.38;;;12.45;100.00
64933;BME280;51446;53.850;10.662;2023-10-31T09:22:12;99081.13;;;12.18;100.00
64933;BME280;51446;53.850;10.662;2023-10-31T09:24:38;99075.97;;;12.13;100.00
64933;BME280;51446;53.850;10.662;2023-10-31T09:27:04;99073.69;;;11.93;100.00
64933;BME280;51446;53.850;10.662;2023-10-31T09:29:29;99074.59;;;11.89;100.00
64933;BME280;51446;53.850;10.662;2023-10-31T09:31:54;99075.59;;;11.82;100.00
64933;BME280;51446;53.850;10.662;2023-10-31T09:34:19;99087.13;;;11.73;100.00
64933;BME280;51446;53.850;10.662;2023-10-31T09:36:45;99095.88;;;11.72;100.00
64933;BME280;51446;53.850;10.662;2023-10-31T09:39:10;99094.41;;;11.56;100.00
64933;BME280;51446;53.850;10.662;2023-10-31T09:41:35;99103.06;;;11.59;100.00
64933;BME280;51446;53.850;10.662;2023-10-31T09:44:01;99110.22;;;11.51;100.00
64933;BME280;51446;53.850;10.662;2023-10-31T09:46:28;99107.66;;;11.48;100.00
64933;BME280;51446;53.850;10.662;2023-10-31T09:48:53;99117.47;;;11.34;100.00
64933;BME280;51446;53.850;10.662;2023-10-31T09:51:20;99113.13;;;11.31;100.00
64933;BME280;51446;53.850;10.662;2023-10-31T09:53:46;99113.03;;;11.37;100.00
64933;BME280;51446;53.850;10.662;2023-10-31T09:56:12;99124.59;;;11.24;100.00
64933;BME280;51446;53.850;10.662;2023-10-31T09:58:38;99119.41;;;11.21;100.00
64933;BME280;51446;53.850;10.662;2023-10-31T10:01:04;99136.84;;;11.22;100.00
64933;BME280;51446;53.850;10.662;2023-10-31T10:03:30;99137.81;;;11.15;100.00
64933;BME280;51446;53.850;10.662;2023-10-31T10:05:55;99130.72;;;11.23;100.00
64933;BME280;51446;53.850;10.662;2023-10-31T10:08:20;99135.13;;;11.22;100.00
64933;BME280;51446;53.850;10.662;2023-10-31T10:10:46;99130.66;;;11.27;100.00
64933;BME280;51446;53.850;10.662;2023-10-31T10:13:12;99134.13;;;11.31;100.00
64933;BME280;51446;53.850;10.662;2023-10-31T10:15:47;99134.19;;;11.25;100.00
64933;BME280;51446;53.850;10.662;2023-10-31T10:18:32;99146.34;;;11.31;100.00
64933;BME280;51446;53.850;10.662;2023-10-31T10:21:05;99156.09;;;11.24;100.00
64933;BME280;51446;53.850;10.662;2023-10-31T10:23:31;99174.53;;;11.16;100.00
64933;BME280;51446;53.850;10.662;2023-10-31T10:25:59;99175.28;;;11.26;100.00
64933;BME280;51446;53.850;10.662;2023-10-31T10:28:25;99177.94;;;11.24;100.00
64933;BME280;51446;53.850;10.662;2023-10-31T10:30:51;99174.38;;;11.30;100.00
64933;BME280;51446;53.850;10.662;2023-10-31T10:33:17;99178.81;;;11.26;100.00
64933;BME280;51446;53.850;10.662;2023-10-31T10:35:43;99173.53;;;11.28;100.00
64933;BME280;51446;53.850;10.662;2023-10-31T10:38:14;99180.69;;;11.15;100.00
64933;BME280;51446;53.850;10.662;2023-10-31T10:40:40;99187.69;;;11.13;100.00
64933;BME280;51446;53.850;10.662;2023-10-31T10:43:19;99192.88;;;11.18;100.00
64933;BME280;51446;53.850;10.662;2023-10-31T10:45:45;99199.06;;;11.15;100.00
64933;BME280;51446;53.850;10.662;2023-10-31T10:48:15;99212.94;;;11.22;100.00
64933;BME280;51446;53.850;10.662;2023-10-31T10:50:43;99220.06;;;11.10;100.00
64933;BME280;51446;53.850;10.662;2023-10-31T10:53:30;99227.34;;;10.85;100.00
64933;BME280;51446;53.850;10.662;2023-10-31T10:56:09;99245.75;;;10.81;100.00
64933;BME280;51446;53.850;10.662;2023-10-31T10:59:03;99252.28;;;10.35;100.00
64933;BME280;51446;53.850;10.662;2023-10-31T11:01:32;99277.78;;;10.03;100.00
64933;BME280;51446;53.850;10.662;2023-10-31T11:03:58;99283.13;;;9.82;100.00
64933;BME280;51446;53.850;10.662;2023-10-31T11:06:25;99304.97;;;9.84;100.00
64933;BME280;51446;53.850;10.662;2023-10-31T11:08:52;99274.53;;;9.58;100.00
64933;BME280;51446;53.850;10.662;2023-10-31T11:11:18;99301.63;;;9.42;100.00
64933;BME280;51446;53.850;10.662;2023-10-31T11:13:45;99338.25;;;9.42;100.00
64933;BME280;51446;53.850;10.662;2023-10-31T11:16:18;99347.88;;;9.38;100.00
64933;BME280;51446;53.850;10.662;2023-10-31T11:18:49;99360.97;;;9.36;100.00
64933;BME280;51446;53.850;10.662;2023-10-31T11:21:15;99381.00;;;9.42;100.00
64933;BME280;51446;53.850;10.662;2023-10-31T11:23:40;99381.88;;;9.38;100.00
64933;BME280;51446;53.850;10.662;2023-10-31T11:26:09;99411.56;;;9.26;100.00
64933;BME280;51446;53.850;10.662;2023-10-31T11:28:35;99430.72;;;9.13;100.00
64933;BME280;51446;53.850;10.662;2023-10-31T11:31:01;99436.84;;;9.15;100.00
64933;BME280;51446;53.850;10.662;2023-10-31T11:33:28;99442.94;;;9.15;100.00
64933;BME280;51446;53.850;10.662;2023-10-31T11:36:00;99450.75;;;9.01;100.00
64933;BME280;51446;53.850;10.662;2023-10-31T11:38:36;99472.53;;;8.90;100.00
64933;BME280;51446;53.850;10.662;2023-10-31T11:41:03;99474.28;;;8.94;100.00
64933;BME280;51446;53.850;10.662;2023-10-31T11:46:06;99484.72;;;8.75;100.00
64933;BME280;51446;53.850;10.662;2023-10-31T11:48:46;99503.91;;;8.82;100.00
64933;BME280;51446;53.850;10.662;2023-10-31T11:51:16;99507.38;;;8.73;100.00
64933;BME280;51446;53.850;10.662;2023-10-31T11:53:43;99508.25;;;8.77;100.00
64933;BME280;51446;53.850;10.662;2023-10-31T11:56:10;99521.34;;;8.88;100.00
64933;BME280;51446;53.850;10.662;2023-10-31T11:58:36;99529.19;;;8.84;100.00
64933;BME280;51446;53.850;10.662;2023-10-31T12:01:05;99533.53;;;8.82;100.00
64933;BME280;51446;53.850;10.662;2023-10-31T12:03:42;99543.13;;;8.88;100.00
64933;BME280;51446;53.850;10.662;2023-10-31T12:06:09;99543.06;;;8.74;100.00
64933;BME280;51446;53.850;10.662;2023-10-31T12:08:42;99550.06;;;8.72;100.00
64933;BME280;51446;53.850;10.662;2023-10-31T12:13:37;99548.28;;;8.71;100.00
64933;BME280;51446;53.850;10.662;2023-10-31T12:16:03;99568.41;;;8.95;100.00
64933;BME280;51446;53.850;10.662;2023-10-31T12:18:29;99573.66;;;8.94;100.00
64933;BME280;51446;53.850;10.662;2023-10-31T12:20:55;99568.41;;;8.86;100.00
64933;BME280;51446;53.850;10.662;2023-10-31T12:23:20;99584.97;;;8.88;100.00
64933;BME280;51446;53.850;10.662;2023-10-31T12:25:50;99588.47;;;8.98;100.00
64933;BME280;51446;53.850;10.662;2023-10-31T12:28:22;99596.25;;;8.84;100.00
64933;BME280;51446;53.850;10.662;2023-10-31T12:30:48;99610.25;;;8.86;100.00
64933;BME280;51446;53.850;10.662;2023-10-31T12:33:17;99619.78;;;8.82;100.00
64933;BME280;51446;53.850;10.662;2023-10-31T12:35:43;99618.03;;;8.77;100.00
64933;BME280;51446;53.850;10.662;2023-10-31T12:38:10;99627.56;;;8.68;100.00
64933;BME280;51446;53.850;10.662;2023-10-31T12:40:37;99630.25;;;8.82;100.00